Aérodrome :
LOGIN :

S'inscrire | Disclaimer

   EN    FR    IT 

 










Légende :    VFR   VFR Marginal   IFR   IFR Intensif   IFR Très Intensif
Visi : 
Plafond : 
>= 8 km
>= 3000ft
5 à 8 km
1000 à 3000 ft
1500m à 5 km
500 à 1000 ft
800 à 1500m
200 à 500 ft
< 800m
< 200 ft
Symboles :   Orages  Brouillard  Fortes neiges  Fortes précipitations  Vent > 20 kt
SIGMETs :   Divers  Orages  Givrage  Turbulence  Onde Orograph.  Cendres Volcan.







- Altitude de l'aérodrome : 32 ft
- Code IATA : LKZ


EGUL - RAF Lakenheath

DERNIER METAR :
  • 212156Z AUTO 04005KT 9999 FEW015 OVC037 03/03 A3030 RMK AO2 SLP264 T00260026

METARs EXPIRÉS :
  • 212056Z AUTO 03006KT 9999 OVC038 03/03 A3030 RMK AO2 SLP264 60000 T00280028 52003
  • 211956Z AUTO 01006KT 9999 OVC036 03/03 A3029 RMK AO2 SLP261 T00340034

TAF TAF EGUL
Valide du 21 à 20h jusqu'au 23 à 02h UTC


212006Z 2120/2302 VRB06KT 9999 SCT015 OVC034 620347 QNH3027INS
TEMPO 2122/2205 4000 BR BKN007
BECMG 2204/2205 08009KT 9000 BR SCT010 BKN030 620307 QNH3024INS
BECMG 2209/2210 09009KT 9999 NSW BKN026 620268 QNH3023INS TX05/2215Z TN01/2203Z
Pas de NOTAMs connus pour ce terrain.



MET'MAP, la Météo Aéronautique d'un coup d'oeil ! - Copyright ORBIFLY Décembre 2007 - Disclaimer

ORBIFLY MET'MAP TEAM :

Programmation & Développement : Alexandra Zaïnal
Conception & Développement : Baudouin d'Aumeries
Co-Programmation & Développement : Marc-Olivier Méhu
Soutien technique & logistique : Manuel Goepfert

Contact : metmap@orbifly.com




SOURCES & CREDITS :

   NOAA